Aeroporto :
LOGIN :

Iscrizione | Disclaimer

   EN    FR    IT 

 










Sommario :    VFR   VFR Marginale   IFR   IFR Intensivo   IFR Molto Intensivo
Visibilità : 
Base nubi : 
>= 8 km
>= 3000ft
5 / 8 km
1000 / 3000 ft
1500m / 5 km
500 / 1000 ft
800 / 1500m
200 / 500 ft
< 800m
< 200 ft
Simboli :   Temporali  Nebbia  Neve Forte  Precipitazioni Forti  Vento > 20 kt
SIGMETs :   Varie  Temporali  Ghiacco  Turbolenza  Onda orograficha  Ceneri Vulcaniche






- Altitudine del aeroporto : 218 ft
- Codice IATA : LBG


LFPB - Paris / Le Bourget

ULTIMO METAR :
  • 291230Z AUTO 22009KT 170V270 7000 NSC 25/09 Q1013 NOSIG

METARs OBSOLETI :
  • 291200Z AUTO 21007KT 140V280 8000 NSC 25/08 Q1014 NOSIG
  • 291130Z AUTO 19008KT 120V240 8000 NSC 24/08 Q1014 NOSIG
  • 291100Z AUTO 20009KT 160V240 9000 NSC 24/08 Q1014 NOSIG
  • 291030Z AUTO 22010KT 180V280 9000 NSC 23/09 Q1014 NOSIG
  • 291000Z AUTO 21012KT 9999 NCD 23/10 Q1014 NOSIG

TAF TAF LFPB
Valido dal 29 a 12 ore il 30 a 12 ore UTC


291100Z 2912/3012 21012KT CAVOK
BECMG 2918/2920 30010KT
PROB30
TEMPO 2920/2923 4000 SHRA SCT045CB
BECMG 2923/3001 VRB03KT
BECMG 3004/3006 22005KT BKN014
TEMPO 3006/3012 4000 -RA SCT020TCU
PROB30
TEMPO 3006/3012 2000 RA BKN009
ATIS : +33 1 48 62 43 92



MetMap, La meteo Aeronautica in un colpo d'occhio ! - Copyright ORBIFLY Dicembre 2007 - Disclaimer

ORBIFLY MET'MAP TEAM :

Programmazione e sviluppo : Alexandra Zaïnal
Concezione : Baudouin d'Aumeries
Supporto tecnico e logistico : Manuel Goepfert
Aiuto : Marc-Olivier Méhu
Aiuto per la traduzione : Arnaldo La Scala




FONTI E CREDITI :

   NOAA